Time;durP1;ratioP1;P1;durP2;ratioP2;P2;SDS_P1;SDS_P2;PMS_P1;PMS_P2;Temp;Humidity;BMP_temperature;BMP_pressure;BME280_temperature;BME280_humidity;BME280_pressure;Samples;Min_cycle;Max_cycle;Signal;HPM_P1;HPM_P2
2022/09/02 00:00:41;;;;;;;;;;;15.90;90.80;;;;;;5050048;28;19928;-74
2022/09/02 00:03:08;;;;;;;;;;;15.90;91.30;;;;;;5031384;28;19947;-73
2022/09/02 00:05:35;;;;;;;;;;;15.90;91.40;;;;;;5050195;28;19932;-73
2022/09/02 00:08:02;;;;;;;;;;;15.80;91.40;;;;;;5046204;28;20313;-73
2022/09/02 00:10:28;;;;;;;;;;;15.70;91.50;;;;;;5048572;28;19936;-73
2022/09/02 00:12:56;;;;;;;;;;;15.70;91.60;;;;;;5030940;28;19928;-73
2022/09/02 00:15:23;;;;;;;;;;;15.60;91.70;;;;;;5048966;28;19936;-73
2022/09/02 00:17:50;;;;;;;;;;;15.60;91.80;;;;;;5047152;28;20066;-73
2022/09/02 00:20:17;;;;;;;;;;;15.50;91.80;;;;;;5049072;28;19978;-73
2022/09/02 00:22:44;;;;;;;;;;;15.40;91.90;;;;;;5026548;28;19975;-73
2022/09/02 00:25:11;;;;;;;;;;;15.40;92.00;;;;;;5031136;28;20382;-73
2022/09/02 00:27:38;;;;;;;;;;;15.30;92.00;;;;;;5048458;28;19948;-73
2022/09/02 00:30:06;;;;;;;;;;;15.30;92.20;;;;;;5047834;28;19928;-73
2022/09/02 00:32:33;;;;;;;;;;;15.20;92.30;;;;;;5048514;28;19936;-73
2022/09/02 00:35:00;;;;;;;;;;;15.20;92.40;;;;;;5033037;28;19929;-73
2022/09/02 00:37:28;;;;;;;;;;;15.20;92.40;;;;;;5029777;28;20465;-73
2022/09/02 00:39:56;;;;;;;;;;;15.20;92.50;;;;;;5048733;28;19935;-72
2022/09/02 00:42:24;;;;;;;;;;;15.10;92.60;;;;;;5029212;28;19929;-72
2022/09/02 00:44:51;;;;;;;;;;;15.10;92.60;;;;;;5032017;28;19932;-73
2022/09/02 00:47:19;;;;;;;;;;;15.10;92.80;;;;;;5031346;28;19935;-73
2022/09/02 00:49:48;;;;;;;;;;;15.10;92.80;;;;;;5049217;28;19925;-72
2022/09/02 00:52:18;;;;;;;;;;;15.10;92.80;;;;;;5048883;28;20309;-72
2022/09/02 00:54:46;;;;;;;;;;;15.10;93.00;;;;;;5029384;28;19935;-72
2022/09/02 00:57:18;;;;;;;;;;;15.10;93.00;;;;;;5029943;28;19933;-71
2022/09/02 00:59:48;;;;;;;;;;;15.20;93.20;;;;;;5048545;28;19925;-72
2022/09/02 01:02:15;;;;;;;;;;;15.20;93.20;;;;;;5043686;28;20730;-73
2022/09/02 01:04:45;;;;;;;;;;;15.20;93.20;;;;;;5029447;28;19932;-73
2022/09/02 01:07:12;;;;;;;;;;;15.20;93.20;;;;;;5029590;28;19929;-73
2022/09/02 01:09:39;;;;;;;;;;;15.10;93.20;;;;;;5048609;28;19924;-74
2022/09/02 01:12:08;;;;;;;;;;;15.10;93.30;;;;;;5031109;28;19967;-72
2022/09/02 01:14:35;;;;;;;;;;;15.10;93.40;;;;;;5061424;28;20021;-72
2022/09/02 01:17:02;;;;;;;;;;;15.00;93.40;;;;;;5042444;28;19940;-72
2022/09/02 01:19:32;;;;;;;;;;;15.00;93.50;;;;;;5040962;28;19925;-72
2022/09/02 01:22:00;;;;;;;;;;;14.90;93.50;;;;;;5053294;28;19931;-72
2022/09/02 01:24:30;;;;;;;;;;;14.80;93.60;;;;;;5035043;28;19929;-72
2022/09/02 01:26:58;;;;;;;;;;;14.80;93.70;;;;;;5032939;28;19924;-71
2022/09/02 01:29:25;;;;;;;;;;;14.80;93.80;;;;;;5050246;28;19925;-72
2022/09/02 01:31:52;;;;;;;;;;;14.70;93.80;;;;;;5030437;28;20504;-74
2022/09/02 01:34:19;;;;;;;;;;;14.70;93.90;;;;;;5030727;28;19932;-72
2022/09/02 01:36:46;;;;;;;;;;;14.60;94.00;;;;;;5030686;28;20694;-73
2022/09/02 01:39:14;;;;;;;;;;;14.60;94.10;;;;;;5049700;28;19929;-73
2022/09/02 01:41:41;;;;;;;;;;;14.60;94.20;;;;;;5047948;28;20035;-73
2022/09/02 01:44:09;;;;;;;;;;;14.60;94.30;;;;;;5030109;28;19936;-73
2022/09/02 01:46:37;;;;;;;;;;;14.60;94.40;;;;;;5029784;28;19939;-73
2022/09/02 01:49:03;;;;;;;;;;;14.60;94.50;;;;;;5030921;28;19925;-73
2022/09/02 01:51:30;;;;;;;;;;;14.60;94.60;;;;;;5032924;28;19929;-73
2022/09/02 01:53:58;;;;;;;;;;;14.60;94.60;;;;;;5033544;28;19982;-73
2022/09/02 01:56:26;;;;;;;;;;;14.60;94.70;;;;;;5050325;28;19925;-73
2022/09/02 01:58:54;;;;;;;;;;;14.60;94.80;;;;;;5048393;28;19925;-73
2022/09/02 02:01:21;;;;;;;;;;;14.60;94.20;;;;;;5028099;28;19929;-72
2022/09/02 02:03:48;;;;;;;;;;;14.90;95.10;;;;;;5033768;28;19936;-73
2022/09/02 02:06:16;;;;;;;;;;;14.70;95.10;;;;;;5032686;28;19951;-73
2022/09/02 02:08:43;;;;;;;;;;;14.70;95.20;;;;;;5034849;28;19931;-73
2022/09/02 02:11:10;;;;;;;;;;;14.70;95.20;;;;;;5055519;28;19947;-73
2022/09/02 02:13:38;;;;;;;;;;;14.80;95.40;;;;;;5032940;28;20309;-73
2022/09/02 02:16:05;;;;;;;;;;;14.80;95.40;;;;;;5033601;28;19939;-73
2022/09/02 02:18:32;;;;;;;;;;;14.80;95.40;;;;;;5051152;28;19943;-73
2022/09/02 02:20:59;;;;;;;;;;;14.80;95.50;;;;;;5050982;28;19928;-73
2022/09/02 02:23:25;;;;;;;;;;;14.80;95.40;;;;;;5033203;28;19928;-73
2022/09/02 02:25:52;;;;;;;;;;;14.80;95.50;;;;;;5051090;28;19929;-75
2022/09/02 02:28:19;;;;;;;;;;;14.70;95.50;;;;;;5051145;28;19928;-75
2022/09/02 02:30:49;;;;;;;;;;;14.60;94.90;;;;;;5032496;28;20035;-75
2022/09/02 02:33:15;;;;;;;;;;;14.70;95.60;;;;;;5032740;28;20012;-74
2022/09/02 02:35:43;;;;;;;;;;;14.70;95.70;;;;;;5053327;28;19928;-74
2022/09/02 02:38:10;;;;;;;;;;;14.70;95.80;;;;;;5032046;28;20382;-74
2022/09/02 02:40:37;;;;;;;;;;;14.70;95.50;;;;;;5052373;28;19929;-76
2022/09/02 02:43:04;;;;;;;;;;;14.70;95.80;;;;;;5032276;28;19924;-75
2022/09/02 02:45:31;;;;;;;;;;;14.70;95.80;;;;;;5031103;28;19940;-76
2022/09/02 02:47:59;;;;;;;;;;;14.70;95.90;;;;;;5032633;28;19939;-76
2022/09/02 02:50:26;;;;;;;;;;;14.70;95.90;;;;;;5031898;28;20576;-74
2022/09/02 02:52:53;;;;;;;;;;;14.70;96.00;;;;;;5031707;28;19936;-75
2022/09/02 02:55:22;;;;;;;;;;;14.70;96.00;;;;;;5032514;28;19999;-77
2022/09/02 02:57:49;;;;;;;;;;;14.70;96.10;;;;;;5049758;28;20394;-75
2022/09/02 03:00:18;;;;;;;;;;;14.70;96.20;;;;;;5031879;28;19933;-74
2022/09/02 03:02:48;;;;;;;;;;;14.70;96.30;;;;;;5050717;28;19990;-76
2022/09/02 03:05:18;;;;;;;;;;;14.70;96.40;;;;;;5032492;28;19928;-75
2022/09/02 03:07:46;;;;;;;;;;;14.70;96.40;;;;;;5034333;28;19994;-76
2022/09/02 03:10:14;;;;;;;;;;;14.70;96.50;;;;;;5032464;28;19925;-76
2022/09/02 03:12:45;;;;;;;;;;;14.70;96.00;;;;;;5536502;23;20495;-77
2022/09/02 03:15:12;;;;;;;;;;;14.70;96.60;;;;;;5039088;28;20358;-73
2022/09/02 03:17:40;;;;;;;;;;;14.70;96.60;;;;;;5048766;28;20520;-73
2022/09/02 03:20:07;;;;;;;;;;;14.70;96.70;;;;;;5039875;28;19925;-73
2022/09/02 03:22:39;;;;;;;;;;;14.70;96.70;;;;;;5032149;28;20043;-74
2022/09/02 03:25:08;;;;;;;;;;;14.70;96.70;;;;;;5028345;28;19929;-75
2022/09/02 03:27:37;;;;;;;;;;;14.70;96.20;;;;;;5061830;22;19924;-80
2022/09/02 03:30:05;;;;;;;;;;;14.70;96.70;;;;;;5074245;28;19925;-80
2022/09/02 03:32:32;;;;;;;;;;;14.70;96.80;;;;;;5055684;28;19929;-80
2022/09/02 03:35:01;;;;;;;;;;;14.60;96.20;;;;;;5070637;28;19931;-78
2022/09/02 03:37:28;;;;;;;;;;;14.60;96.80;;;;;;5052691;28;20404;-78
2022/09/02 03:39:56;;;;;;;;;;;14.60;96.90;;;;;;5033279;28;20016;-78
2022/09/02 03:42:23;;;;;;;;;;;14.50;96.90;;;;;;5043032;28;19931;-78
2022/09/02 03:44:51;;;;;;;;;;;14.50;96.90;;;;;;5050235;28;19925;-78
2022/09/02 03:47:18;;;;;;;;;;;14.40;97.00;;;;;;5050005;28;19929;-79
2022/09/02 03:49:46;;;;;;;;;;;14.40;97.10;;;;;;5049495;28;20029;-78
2022/09/02 03:52:13;;;;;;;;;;;14.40;97.10;;;;;;5033097;28;19929;-78
2022/09/02 03:54:41;;;;;;;;;;;14.40;97.20;;;;;;5050759;28;20291;-78
2022/09/02 03:57:09;;;;;;;;;;;14.60;97.50;;;;;;5050634;28;19924;-79
2022/09/02 03:59:36;;;;;;;;;;;14.60;97.40;;;;;;5052220;28;19954;-78
2022/09/02 04:02:03;;;;;;;;;;;14.50;97.40;;;;;;5036573;28;19929;-78
2022/09/02 04:07:05;;;;;;;;;;;14.50;97.20;;;;;;5000115;28;19941;-72
2022/09/02 04:09:32;;;;;;;;;;;14.50;97.50;;;;;;4995404;28;20349;-72
2022/09/02 04:11:58;;;;;;;;;;;14.40;97.60;;;;;;4989820;28;20298;-72
2022/09/02 04:14:27;;;;;;;;;;;14.40;97.70;;;;;;5001562;28;20413;-71
2022/09/02 04:16:54;;;;;;;;;;;14.40;97.80;;;;;;5006282;28;19975;-72
2022/09/02 04:19:22;;;;;;;;;;;14.40;97.80;;;;;;5006100;28;19941;-72
2022/09/02 04:21:49;;;;;;;;;;;14.30;97.90;;;;;;5006799;28;20251;-74
2022/09/02 04:24:17;;;;;;;;;;;14.40;98.10;;;;;;5006787;28;19933;-71
2022/09/02 04:26:47;;;;;;;;;;;14.40;97.50;;;;;;5006588;28;19937;-71
2022/09/02 04:29:17;;;;;;;;;;;14.40;98.10;;;;;;5005642;28;19929;-71
2022/09/02 04:31:46;;;;;;;;;;;14.40;98.00;;;;;;4997407;28;19968;-75
2022/09/02 04:34:13;;;;;;;;;;;14.40;98.10;;;;;;5006812;28;19940;-71
2022/09/02 04:36:41;;;;;;;;;;;14.40;97.70;;;;;;5001736;28;19935;-71
2022/09/02 04:39:09;;;;;;;;;;;14.40;98.20;;;;;;5003281;28;19983;-69
2022/09/02 04:41:36;;;;;;;;;;;14.40;98.30;;;;;;5005708;28;19932;-69
2022/09/02 04:44:06;;;;;;;;;;;14.40;98.30;;;;;;5004512;28;20008;-68
2022/09/02 04:46:37;;;;;;;;;;;14.40;97.90;;;;;;5022878;28;20417;-68
2022/09/02 04:49:12;;;;;;;;;;;14.40;98.30;;;;;;5022548;28;19980;-68
2022/09/02 04:51:41;;;;;;;;;;;14.40;98.30;;;;;;4998464;28;19993;-68
2022/09/02 04:54:09;;;;;;;;;;;14.40;98.40;;;;;;5002665;28;19930;-70
2022/09/02 04:56:38;;;;;;;;;;;14.50;98.10;;;;;;5006649;28;19925;-70
2022/09/02 04:59:06;;;;;;;;;;;14.50;98.50;;;;;;5004448;28;19930;-71
2022/09/02 05:01:35;;;;;;;;;;;14.50;98.50;;;;;;5006892;28;19991;-70
2022/09/02 05:04:08;;;;;;;;;;;14.50;99.00;;;;;;5008112;28;19926;-73
2022/09/02 05:06:39;;;;;;;;;;;14.60;98.40;;;;;;5004338;28;19972;-71
2022/09/02 05:09:08;;;;;;;;;;;14.60;98.80;;;;;;5001603;28;19929;-72
2022/09/02 05:11:37;;;;;;;;;;;14.70;98.90;;;;;;5006462;28;19926;-70
2022/09/02 05:14:06;;;;;;;;;;;14.80;99.00;;;;;;5003397;28;19926;-70
2022/09/02 05:16:36;;;;;;;;;;;14.90;98.70;;;;;;5007955;28;19925;-71
2022/09/02 05:19:08;;;;;;;;;;;14.90;99.00;;;;;;4992351;28;19930;-72
2022/09/02 05:21:42;;;;;;;;;;;14.90;99.10;;;;;;4987681;28;19936;-74
2022/09/02 05:24:12;;;;;;;;;;;15.00;99.10;;;;;;4985939;28;19965;-74
2022/09/02 05:26:39;;;;;;;;;;;15.00;98.50;;;;;;4987161;28;19925;-71
2022/09/02 05:29:07;;;;;;;;;;;15.10;99.00;;;;;;4993428;28;19945;-71
2022/09/02 05:31:34;;;;;;;;;;;15.10;98.90;;;;;;4996594;28;19930;-72
2022/09/02 05:34:01;;;;;;;;;;;15.10;98.90;;;;;;5006628;28;19952;-71
2022/09/02 05:36:28;;;;;;;;;;;15.10;99.00;;;;;;5003641;28;19930;-72
2022/09/02 05:38:57;;;;;;;;;;;15.10;99.00;;;;;;4998611;28;19925;-73
2022/09/02 05:41:24;;;;;;;;;;;15.10;99.00;;;;;;5000775;28;19936;-73
2022/09/02 05:43:55;;;;;;;;;;;15.00;99.00;;;;;;5019719;28;19929;-73
2022/09/02 05:46:23;;;;;;;;;;;15.00;99.10;;;;;;4989975;28;20036;-72
2022/09/02 05:49:07;;;;;;;;;;;15.00;98.90;;;;;;4993306;28;19933;-72
2022/09/02 05:51:49;;;;;;;;;;;15.10;99.30;;;;;;4986508;28;19934;-71
2022/09/02 05:54:23;;;;;;;;;;;15.10;99.40;;;;;;4986709;28;19930;-71
2022/09/02 05:56:51;;;;;;;;;;;15.10;99.40;;;;;;4985645;28;20387;-71
2022/09/02 05:59:20;;;;;;;;;;;15.20;99.70;;;;;;4995078;28;20460;-70
2022/09/02 06:01:47;;;;;;;;;;;15.30;99.80;;;;;;5006872;28;19929;-68
2022/09/02 06:04:14;;;;;;;;;;;15.40;99.90;;;;;;4997367;28;19957;-69
2022/09/02 06:06:41;;;;;;;;;;;15.70;99.60;;;;;;5001161;28;19929;-68
2022/09/02 06:09:10;;;;;;;;;;;15.80;99.90;;;;;;5004544;28;19929;-67
2022/09/02 06:11:43;;;;;;;;;;;16.00;99.90;;;;;;5005034;28;19941;-67
2022/09/02 06:14:13;;;;;;;;;;;16.20;99.90;;;;;;4998428;28;20334;-68
2022/09/02 06:16:41;;;;;;;;;;;16.70;99.90;;;;;;5004454;28;19948;-68
2022/09/02 06:19:15;;;;;;;;;;;16.70;99.90;;;;;;5006809;28;19976;-69
2022/09/02 06:21:41;;;;;;;;;;;17.10;99.90;;;;;;4995177;28;20486;-68
2022/09/02 06:24:09;;;;;;;;;;;17.50;99.90;;;;;;5006436;28;19940;-68
2022/09/02 06:26:36;;;;;;;;;;;18.10;99.90;;;;;;5003192;28;19926;-68
2022/09/02 06:29:05;;;;;;;;;;;18.10;99.90;;;;;;5003699;28;19933;-68
2022/09/02 06:31:33;;;;;;;;;;;18.40;99.90;;;;;;5004713;28;19956;-67
2022/09/02 06:34:00;;;;;;;;;;;18.60;99.60;;;;;;4997896;28;19926;-70
2022/09/02 06:36:29;;;;;;;;;;;18.80;99.60;;;;;;5006461;28;20039;-70
2022/09/02 06:39:00;;;;;;;;;;;18.90;98.80;;;;;;5003363;28;19929;-70
2022/09/02 06:41:30;;;;;;;;;;;19.00;99.00;;;;;;5009001;28;19983;-70
2022/09/02 06:44:00;;;;;;;;;;;19.00;98.80;;;;;;5007701;28;20028;-71
2022/09/02 06:46:30;;;;;;;;;;;19.20;98.70;;;;;;5005546;28;19978;-71
2022/09/02 06:48:59;;;;;;;;;;;19.90;99.40;;;;;;5009610;28;19929;-73
2022/09/02 06:51:28;;;;;;;;;;;20.70;99.20;;;;;;5023168;28;19983;-72
2022/09/02 06:53:56;;;;;;;;;;;21.10;98.70;;;;;;4999071;28;19937;-71
2022/09/02 06:56:26;;;;;;;;;;;21.30;97.80;;;;;;4993073;28;19933;-70
2022/09/02 06:58:53;;;;;;;;;;;21.70;97.70;;;;;;4991923;28;20482;-73
2022/09/02 07:01:35;;;;;;;;;;;22.40;98.00;;;;;;4997064;28;20399;-72
2022/09/02 07:06:48;;;;;;;;;;;25.80;96.70;;;;;;5002157;28;20028;-75
2022/09/02 07:09:16;;;;;;;;;;;26.00;95.10;;;;;;4999309;28;19926;-72
2022/09/02 07:11:46;;;;;;;;;;;26.60;93.20;;;;;;4998505;28;19965;-70
2022/09/02 07:14:13;;;;;;;;;;;26.60;92.50;;;;;;5024641;28;19929;-71
2022/09/02 07:16:45;;;;;;;;;;;25.90;90.90;;;;;;5008671;28;19925;-70
2022/09/02 07:19:12;;;;;;;;;;;25.90;90.60;;;;;;5025001;28;20402;-72
2022/09/02 07:21:40;;;;;;;;;;;25.40;90.20;;;;;;5008224;28;19961;-70
2022/09/02 07:24:07;;;;;;;;;;;25.00;90.90;;;;;;5024586;28;19925;-68
2022/09/02 07:26:34;;;;;;;;;;;24.30;91.00;;;;;;5024558;28;20433;-68
2022/09/02 07:29:03;;;;;;;;;;;24.30;91.20;;;;;;5008679;28;20389;-68
2022/09/02 07:31:29;;;;;;;;;;;24.10;91.30;;;;;;4997452;28;20422;-68
2022/09/02 07:33:59;;;;;;;;;;;23.80;91.50;;;;;;4989636;28;20414;-68
2022/09/02 07:36:26;;;;;;;;;;;23.80;91.90;;;;;;4990302;28;19940;-67
2022/09/02 07:38:55;;;;;;;;;;;23.70;91.60;;;;;;5004790;28;19978;-68
2022/09/02 07:41:23;;;;;;;;;;;23.70;91.90;;;;;;4998840;28;19934;-68
2022/09/02 07:43:50;;;;;;;;;;;23.80;91.80;;;;;;5001462;28;19972;-67
2022/09/02 07:46:17;;;;;;;;;;;23.80;91.90;;;;;;5024307;28;19930;-67
2022/09/02 07:48:44;;;;;;;;;;;23.90;91.70;;;;;;5024770;28;19960;-68
2022/09/02 07:51:12;;;;;;;;;;;24.10;92.10;;;;;;5022803;28;20065;-68
2022/09/02 07:53:40;;;;;;;;;;;24.50;92.10;;;;;;5024201;28;19925;-69
2022/09/02 07:56:06;;;;;;;;;;;24.80;91.90;;;;;;5008553;28;19949;-68
2022/09/02 07:58:33;;;;;;;;;;;25.60;92.00;;;;;;5001758;28;19934;-68
2022/09/02 08:01:02;;;;;;;;;;;25.90;90.20;;;;;;4996940;28;19942;-68
2022/09/02 08:03:30;;;;;;;;;;;25.90;89.80;;;;;;5007410;28;19961;-68
2022/09/02 08:05:59;;;;;;;;;;;25.90;90.00;;;;;;5000343;28;19925;-68
2022/09/02 08:08:27;;;;;;;;;;;25.80;89.80;;;;;;5003935;28;19952;-68
2022/09/02 08:10:54;;;;;;;;;;;25.80;90.30;;;;;;4996218;28;19940;-69
2022/09/02 08:13:21;;;;;;;;;;;26.10;90.60;;;;;;5016429;28;19941;-69
2022/09/02 08:15:48;;;;;;;;;;;26.80;90.80;;;;;;4994003;28;20410;-70
2022/09/02 08:18:15;;;;;;;;;;;27.70;90.40;;;;;;5007463;28;20314;-70
2022/09/02 08:20:42;;;;;;;;;;;28.20;89.20;;;;;;5007614;28;19939;-69
2022/09/02 08:23:10;;;;;;;;;;;28.90;84.30;;;;;;5008526;28;19929;-69
2022/09/02 08:25:39;;;;;;;;;;;29.10;83.70;;;;;;5010737;28;20087;-69
2022/09/02 08:28:06;;;;;;;;;;;29.60;85.00;;;;;;5009469;28;20044;-70
2022/09/02 08:30:33;;;;;;;;;;;29.90;83.60;;;;;;5004716;28;19933;-69
2022/09/02 08:33:00;;;;;;;;;;;30.40;82.00;;;;;;5009914;28;19929;-69
2022/09/02 08:35:26;;;;;;;;;;;30.60;79.60;;;;;;5002852;28;19937;-70
2022/09/02 08:37:53;;;;;;;;;;;30.80;80.20;;;;;;5543426;22;20210;-69
2022/09/02 08:40:21;;;;;;;;;;;30.80;78.10;;;;;;5013545;28;19929;-69
2022/09/02 08:42:51;;;;;;;;;;;30.90;77.60;;;;;;5021339;28;19925;-69
2022/09/02 08:45:20;;;;;;;;;;;30.90;75.50;;;;;;5027676;28;20028;-69
2022/09/02 08:47:48;;;;;;;;;;;30.60;76.90;;;;;;5027767;28;19929;-69
2022/09/02 08:50:16;;;;;;;;;;;30.50;75.60;;;;;;5027827;28;20215;-70
2022/09/02 08:52:45;;;;;;;;;;;30.40;75.90;;;;;;5038887;22;20001;-74
2022/09/02 08:55:15;;;;;;;;;;;30.10;74.40;;;;;;5000252;28;19933;-75
2022/09/02 08:57:43;;;;;;;;;;;29.70;74.30;;;;;;5001566;28;19934;-77
2022/09/02 09:00:13;;;;;;;;;;;29.60;75.50;;;;;;5004158;28;19952;-77
2022/09/02 09:02:44;;;;;;;;;;;29.60;73.60;;;;;;4989745;28;19929;-77
2022/09/02 09:05:17;;;;;;;;;;;29.40;73.90;;;;;;4988825;28;20399;-77
2022/09/02 09:07:50;;;;;;;;;;;29.00;72.90;;;;;;4991611;28;20325;-78
2022/09/02 09:10:20;;;;;;;;;;;28.60;72.50;;;;;;5000803;28;19937;-74
2022/09/02 09:12:54;;;;;;;;;;;28.40;73.00;;;;;;5001905;28;19930;-73
2022/09/02 09:15:30;;;;;;;;;;;28.30;73.50;;;;;;4982660;28;19929;-75
2022/09/02 09:17:58;;;;;;;;;;;28.30;74.10;;;;;;4984153;28;19926;-74
2022/09/02 09:20:26;;;;;;;;;;;28.40;74.30;;;;;;4987769;28;19930;-75
2022/09/02 09:22:56;;;;;;;;;;;28.60;73.60;;;;;;4988070;28;19913;-76
2022/09/02 09:25:28;;;;;;;;;;;28.60;73.20;;;;;;4998126;28;20414;-75
2022/09/02 09:27:55;;;;;;;;;;;28.50;73.60;;;;;;4979583;28;20383;-74
2022/09/02 09:30:24;;;;;;;;;;;28.70;73.70;;;;;;4996360;28;19933;-77
2022/09/02 09:32:53;;;;;;;;;;;28.70;72.40;;;;;;4997314;28;19933;-74
2022/09/02 09:35:20;;;;;;;;;;;28.70;71.20;;;;;;5000345;28;19930;-76
2022/09/02 09:37:48;;;;;;;;;;;28.40;71.50;;;;;;5006841;28;19995;-76
2022/09/02 09:40:24;;;;;;;;;;;28.10;71.70;;;;;;4986779;28;20429;-74
2022/09/02 09:42:54;;;;;;;;;;;27.70;72.40;;;;;;4986725;28;20040;-74
2022/09/02 09:45:21;;;;;;;;;;;27.60;72.90;;;;;;4992868;28;19938;-75
2022/09/02 09:48:03;;;;;;;;;;;27.40;73.40;;;;;;4986171;28;19925;-75
2022/09/02 09:50:31;;;;;;;;;;;27.40;73.80;;;;;;4984957;28;19929;-74
2022/09/02 09:53:13;;;;;;;;;;;27.30;71.90;;;;;;4983562;28;19930;-74
2022/09/02 09:55:49;;;;;;;;;;;27.10;72.50;;;;;;4990535;28;20666;-74
2022/09/02 09:58:16;;;;;;;;;;;26.80;73.30;;;;;;5001553;28;20024;-76
2022/09/02 10:00:43;;;;;;;;;;;26.60;73.20;;;;;;4999294;28;19926;-73
2022/09/02 10:03:18;;;;;;;;;;;26.80;73.30;;;;;;5006879;28;20080;-74
2022/09/02 10:05:46;;;;;;;;;;;26.90;73.00;;;;;;4987615;28;19933;-75
2022/09/02 10:08:19;;;;;;;;;;;27.10;73.20;;;;;;4986256;28;20068;-74
2022/09/02 10:10:55;;;;;;;;;;;27.30;73.50;;;;;;4990919;28;20318;-79
2022/09/02 10:13:24;;;;;;;;;;;27.60;72.10;;;;;;4992002;28;19933;-74
2022/09/02 10:15:58;;;;;;;;;;;27.70;71.70;;;;;;5012861;28;20025;-76
2022/09/02 10:18:29;;;;;;;;;;;27.70;71.70;;;;;;4996516;28;19926;-75
2022/09/02 10:21:00;;;;;;;;;;;27.80;71.50;;;;;;4992832;28;19945;-75
2022/09/02 10:23:35;;;;;;;;;;;27.90;67.30;;;;;;4992777;28;20303;-76
2022/09/02 10:26:07;;;;;;;;;;;27.80;68.50;;;;;;4985948;28;19926;-75
2022/09/02 10:28:41;;;;;;;;;;;27.80;67.40;;;;;;4991671;28;19930;-75
2022/09/02 10:31:11;;;;;;;;;;;27.90;68.20;;;;;;5010251;28;19929;-75
2022/09/02 10:33:42;;;;;;;;;;;28.20;67.20;;;;;;4993614;28;19937;-74
2022/09/02 10:36:14;;;;;;;;;;;27.50;65.80;;;;;;4977971;28;19965;-79
2022/09/02 10:38:42;;;;;;;;;;;28.30;65.70;;;;;;4990685;28;19949;-77
2022/09/02 10:41:25;;;;;;;;;;;28.30;65.70;;;;;;4999205;28;19929;-77
2022/09/02 10:44:13;;;;;;;;;;;28.30;64.40;;;;;;4998366;28;19956;-76
2022/09/02 10:46:44;;;;;;;;;;;28.30;65.10;;;;;;5007036;28;19930;-75
2022/09/02 10:49:14;;;;;;;;;;;28.30;64.70;;;;;;5011097;28;20486;-74
2022/09/02 10:51:44;;;;;;;;;;;28.10;64.30;;;;;;4996356;28;19964;-74
2022/09/02 10:54:20;;;;;;;;;;;28.10;64.30;;;;;;4991776;28;20450;-74
2022/09/02 10:56:51;;;;;;;;;;;27.90;63.80;;;;;;4989735;28;19926;-74
2022/09/02 10:59:19;;;;;;;;;;;27.90;64.30;;;;;;4998572;28;19929;-76
2022/09/02 11:01:49;;;;;;;;;;;27.90;64.50;;;;;;5002505;28;19996;-76
2022/09/02 11:04:18;;;;;;;;;;;28.10;64.20;;;;;;5010757;28;20402;-76
2022/09/02 11:06:48;;;;;;;;;;;28.10;64.30;;;;;;5005343;28;19988;-74
2022/09/02 11:09:19;;;;;;;;;;;28.10;64.50;;;;;;4997687;28;19999;-75
2022/09/02 11:11:51;;;;;;;;;;;28.20;64.50;;;;;;5012350;28;19930;-76
2022/09/02 11:14:21;;;;;;;;;;;28.40;64.30;;;;;;5016232;28;19925;-75
2022/09/02 11:16:51;;;;;;;;;;;28.70;64.10;;;;;;4991396;28;19930;-74
2022/09/02 11:19:20;;;;;;;;;;;29.00;61.90;;;;;;4992229;28;19925;-75
2022/09/02 11:21:52;;;;;;;;;;;29.10;61.30;;;;;;4999529;28;19933;-76
2022/09/02 11:24:21;;;;;;;;;;;29.10;60.70;;;;;;5008103;28;19949;-76
2022/09/02 11:26:53;;;;;;;;;;;29.20;61.90;;;;;;4998998;28;19945;-77
2022/09/02 11:29:21;;;;;;;;;;;29.10;60.90;;;;;;5004959;28;19929;-78
2022/09/02 11:31:50;;;;;;;;;;;29.20;60.20;;;;;;4991771;28;19929;-77
2022/09/02 11:34:20;;;;;;;;;;;29.20;59.80;;;;;;4984487;28;19933;-74
2022/09/02 11:36:47;;;;;;;;;;;29.20;59.60;;;;;;4988559;28;19937;-77
2022/09/02 11:39:18;;;;;;;;;;;29.20;59.30;;;;;;4984224;28;20005;-77
2022/09/02 11:41:54;;;;;;;;;;;29.10;59.30;;;;;;4988375;28;19936;-76
2022/09/02 11:44:31;;;;;;;;;;;29.10;59.70;;;;;;4983899;28;19926;-74
2022/09/02 11:47:07;;;;;;;;;;;29.10;60.00;;;;;;4980756;28;19937;-76
2022/09/02 11:49:56;;;;;;;;;;;29.20;60.10;;;;;;4997956;28;20477;-75
2022/09/02 11:52:26;;;;;;;;;;;29.30;60.20;;;;;;4983458;28;19961;-79
2022/09/02 11:55:00;;;;;;;;;;;29.20;59.30;;;;;;4985406;28;19930;-76
2022/09/02 11:57:27;;;;;;;;;;;29.10;58.60;;;;;;4980759;28;20292;-74
2022/09/02 12:00:14;;;;;;;;;;;29.10;59.30;;;;;;4991786;28;19948;-76
2022/09/02 12:02:43;;;;;;;;;;;29.20;58.60;;;;;;4986038;28;19945;-75
2022/09/02 12:05:43;;;;;;;;;;;29.40;59.10;;;;;;4983823;28;19930;-75
2022/09/02 12:08:11;;;;;;;;;;;29.60;58.60;;;;;;4886270;29;19967;-74
2022/09/02 12:10:59;;;;;;;;;;;29.60;58.20;;;;;;4904036;29;20515;-74
2022/09/02 12:13:32;;;;;;;;;;;29.30;57.50;;;;;;4948720;28;20256;-77
2022/09/02 12:16:14;;;;;;;;;;;29.20;58.30;;;;;;4982487;28;19964;-76
2022/09/02 12:18:43;;;;;;;;;;;29.30;58.30;;;;;;4987323;28;20009;-76
2022/09/02 12:21:11;;;;;;;;;;;29.30;58.20;;;;;;4997785;28;19968;-74
2022/09/02 12:23:57;;;;;;;;;;;29.10;57.40;;;;;;4985582;28;20256;-73
2022/09/02 12:26:25;;;;;;;;;;;29.00;57.70;;;;;;4976678;28;19930;-74
2022/09/02 12:28:53;;;;;;;;;;;29.00;58.10;;;;;;4993716;28;19964;-74
2022/09/02 12:31:40;;;;;;;;;;;28.60;57.80;;;;;;4986057;28;19926;-73
2022/09/02 12:34:22;;;;;;;;;;;28.60;58.40;;;;;;4984060;28;19996;-75
2022/09/02 12:36:50;;;;;;;;;;;28.50;59.10;;;;;;4992749;28;20017;-72
2022/09/02 12:39:36;;;;;;;;;;;28.40;59.10;;;;;;4989331;28;19932;-76
2022/09/02 12:42:18;;;;;;;;;;;28.00;58.40;;;;;;4991694;28;19936;-72
2022/09/02 12:44:48;;;;;;;;;;;27.90;59.20;;;;;;4992446;28;19936;-75
2022/09/02 12:47:30;;;;;;;;;;;27.80;59.20;;;;;;4982478;28;19933;-72
2022/09/02 12:50:02;;;;;;;;;;;27.70;58.90;;;;;;4998647;28;20012;-72
2022/09/02 12:52:47;;;;;;;;;;;27.60;59.00;;;;;;4988494;28;19925;-72
2022/09/02 12:55:17;;;;;;;;;;;27.50;59.70;;;;;;4989064;28;20322;-72
2022/09/02 12:57:48;;;;;;;;;;;27.50;59.90;;;;;;4986207;28;20387;-72
2022/09/02 13:00:16;;;;;;;;;;;27.40;60.00;;;;;;4984756;28;19936;-72
2022/09/02 13:02:51;;;;;;;;;;;27.40;59.80;;;;;;4996226;28;21202;-71
2022/09/02 13:05:21;;;;;;;;;;;27.40;60.70;;;;;;4983099;28;19930;-72
2022/09/02 13:08:07;;;;;;;;;;;27.30;60.00;;;;;;4987277;28;19938;-72
2022/09/02 13:10:43;;;;;;;;;;;27.30;60.10;;;;;;5002794;28;19975;-72
2022/09/02 13:13:35;;;;;;;;;;;27.40;59.60;;;;;;5007410;28;19956;-72
2022/09/02 13:16:11;;;;;;;;;;;27.40;59.90;;;;;;4985770;28;19956;-72
2022/09/02 13:18:56;;;;;;;;;;;27.70;60.70;;;;;;4987803;28;19937;-72
2022/09/02 13:21:37;;;;;;;;;;;28.20;59.70;;;;;;4995861;28;20434;-72
2022/09/02 13:24:22;;;;;;;;;;;28.20;60.00;;;;;;5001262;28;19959;-72
2022/09/02 13:27:04;;;;;;;;;;;28.10;59.10;;;;;;5004713;28;19933;-72
2022/09/02 13:29:48;;;;;;;;;;;27.90;59.10;;;;;;4981547;28;19933;-73
2022/09/02 13:32:21;;;;;;;;;;;27.90;59.70;;;;;;4974769;28;19930;-70
2022/09/02 13:34:48;;;;;;;;;;;27.90;59.40;;;;;;4980090;28;20271;-73
2022/09/02 13:37:26;;;;;;;;;;;27.80;59.50;;;;;;4988044;28;19937;-71
2022/09/02 13:39:53;;;;;;;;;;;27.70;59.10;;;;;;4986626;28;20391;-71
2022/09/02 13:42:22;;;;;;;;;;;27.50;58.50;;;;;;4981589;28;19934;-75
2022/09/02 13:44:50;;;;;;;;;;;27.50;59.80;;;;;;4995104;28;19934;-74
2022/09/02 13:47:19;;;;;;;;;;;27.70;59.30;;;;;;4991605;28;19984;-74
2022/09/02 13:49:47;;;;;;;;;;;28.00;59.00;;;;;;4991080;28;19930;-74
2022/09/02 13:52:15;;;;;;;;;;;28.30;57.70;;;;;;4998941;28;20383;-73
2022/09/02 13:54:44;;;;;;;;;;;28.30;58.00;;;;;;4990937;28;19926;-74
2022/09/02 13:57:12;;;;;;;;;;;28.40;58.20;;;;;;4990390;28;19930;-74
2022/09/02 13:59:40;;;;;;;;;;;28.40;57.70;;;;;;4999370;28;19929;-74
2022/09/02 14:02:31;;;;;;;;;;;28.70;57.90;;;;;;5005980;28;19940;-76
2022/09/02 14:05:01;;;;;;;;;;;28.80;58.10;;;;;;4993153;28;19930;-74
2022/09/02 14:07:32;;;;;;;;;;;29.10;57.60;;;;;;4990405;28;19929;-74
2022/09/02 14:10:00;;;;;;;;;;;29.30;57.60;;;;;;5005355;28;19936;-77
2022/09/02 14:12:28;;;;;;;;;;;29.40;57.00;;;;;;5004421;28;19933;-74
2022/09/02 14:14:59;;;;;;;;;;;29.50;56.40;;;;;;4999735;28;19925;-76
2022/09/02 14:17:26;;;;;;;;;;;29.40;56.60;;;;;;4997423;28;19936;-75
2022/09/02 14:20:08;;;;;;;;;;;29.40;56.80;;;;;;4992041;28;19941;-75
2022/09/02 14:22:36;;;;;;;;;;;29.20;56.60;;;;;;4987924;28;19926;-75
2022/09/02 14:25:07;;;;;;;;;;;29.10;56.50;;;;;;4990064;28;20727;-75
2022/09/02 14:27:34;;;;;;;;;;;28.90;56.50;;;;;;4991377;28;20028;-75
2022/09/02 14:30:04;;;;;;;;;;;28.60;56.80;;;;;;4998496;28;19933;-75
2022/09/02 14:32:31;;;;;;;;;;;28.40;56.60;;;;;;5012091;28;19925;-74
2022/09/02 14:35:08;;;;;;;;;;;28.30;57.10;;;;;;5009097;28;19940;-77
2022/09/02 14:37:47;;;;;;;;;;;27.90;57.00;;;;;;5001345;28;19932;-74